Time;durP1;ratioP1;P1;durP2;ratioP2;P2;SDS_P1;SDS_P2;PMS_P1;PMS_P2;Temp;Humidity;BMP_temperature;BMP_pressure;BME280_temperature;BME280_humidity;BME280_pressure;Samples;Min_cycle;Max_cycle;Signal;HPM_P1;HPM_P2
2023/03/11 00:01:39;;;;;;;11.20;5.80;;;;;;;-0.91;98.84;97268.09;108896;1249;1002685;-73
2023/03/11 00:04:25;;;;;;;11.50;5.30;;;;;;;-0.91;98.98;97266.02;109825;1249;73594;-73
2023/03/11 00:07:13;;;;;;;11.40;5.50;;;;;;;-0.93;98.92;97264.39;109797;1250;59825;-74
2023/03/11 00:09:59;;;;;;;11.80;6.00;;;;;;;-0.94;99.08;97265.66;109685;1249;59861;-73
2023/03/11 00:12:45;;;;;;;11.80;6.30;;;;;;;-0.94;99.01;97261.82;109125;1249;1002369;-72
2023/03/11 00:15:33;;;;;;;10.80;5.80;;;;;;;-0.93;99.20;97258.64;109084;1251;1002210;-73
2023/03/11 00:18:24;;;;;;;12.70;6.10;;;;;;;-0.91;99.29;97261.14;109077;1249;1002119;-73
2023/03/11 00:21:16;;;;;;;11.10;5.70;;;;;;;-0.92;99.08;97263.77;109684;1249;57302;-73
2023/03/11 00:24:03;;;;;;;10.20;4.80;;;;;;;-0.93;99.30;97258.27;109686;1250;59654;-73
2023/03/11 00:26:49;;;;;;;10.30;4.80;;;;;;;-0.95;99.15;97258.77;109661;1251;73950;-72
2023/03/11 00:29:36;;;;;;;13.60;4.40;;;;;;;-0.99;99.43;97258.19;109861;1250;68724;-73
2023/03/11 00:32:22;;;;;;;10.80;4.90;;;;;;;-1.02;99.50;97256.73;109839;1250;72381;-74
2023/03/11 00:35:17;;;;;;;11.70;5.60;;;;;;;-1.02;99.57;97254.46;109662;1250;57313;-73
2023/03/11 00:38:07;;;;;;;11.70;5.50;;;;;;;-1.01;99.55;97256.80;109654;1251;61344;-74
2023/03/11 00:40:53;;;;;;;9.60;5.10;;;;;;;-0.99;99.56;97251.23;109616;1250;74066;-72
2023/03/11 00:43:40;;;;;;;11.20;5.50;;;;;;;-0.98;99.56;97250.48;109886;1250;66732;-71
2023/03/11 00:46:28;;;;;;;8.60;4.30;;;;;;;-0.97;99.63;97252.50;109873;1249;72690;-73
2023/03/11 00:49:16;;;;;;;9.70;4.70;;;;;;;-0.97;99.30;97248.69;109874;1249;57238;-71
2023/03/11 00:52:03;;;;;;;13.50;5.20;;;;;;;-0.98;99.35;97244.96;109889;1250;58373;-72
2023/03/11 00:54:50;;;;;;;9.30;4.40;;;;;;;-1.02;99.72;97244.15;108969;1251;1002293;-72
2023/03/11 00:57:38;;;;;;;12.40;5.70;;;;;;;-1.04;99.64;97240.64;109792;1250;68986;-74
2023/03/11 01:00:27;;;;;;;9.40;4.30;;;;;;;-1.05;99.61;97238.27;109698;1249;72541;-73
2023/03/11 01:03:14;;;;;;;12.80;5.40;;;;;;;-1.05;99.66;97242.84;109711;1249;58664;-71
2023/03/11 01:06:01;;;;;;;10.40;4.80;;;;;;;-1.06;99.84;97246.05;109720;1250;61337;-72
2023/03/11 01:08:48;;;;;;;9.70;4.30;;;;;;;-1.07;99.71;97250.08;109680;1250;72925;-70
2023/03/11 01:11:35;;;;;;;9.10;3.90;;;;;;;-1.05;99.84;97249.95;109698;1249;68061;-70
2023/03/11 01:14:21;;;;;;;10.60;4.90;;;;;;;-1.06;99.89;97253.84;109846;1249;71569;-71
2023/03/11 01:17:09;;;;;;;12.60;5.30;;;;;;;-1.05;99.93;97249.11;109065;1250;1002711;-72
2023/03/11 01:19:55;;;;;;;10.00;5.40;;;;;;;-1.03;100.00;97251.75;109725;1249;61118;-71
2023/03/11 01:22:42;;;;;;;12.10;5.00;;;;;;;-1.03;99.89;97253.77;109721;1250;73245;-72
2023/03/11 01:25:29;;;;;;;11.80;5.50;;;;;;;-1.01;99.96;97254.76;109743;1249;67677;-74
2023/03/11 01:28:17;;;;;;;10.80;5.00;;;;;;;-1.02;99.80;97255.84;109900;1249;73727;-73
2023/03/11 01:31:03;;;;;;;9.80;5.20;;;;;;;-1.03;99.91;97252.23;109836;1249;58659;-73
2023/03/11 01:33:50;;;;;;;9.30;4.50;;;;;;;-1.05;99.95;97253.60;109882;1250;59171;-73
2023/03/11 01:36:37;;;;;;;9.80;4.50;;;;;;;-1.06;99.99;97257.69;109845;1250;73898;-73
2023/03/11 01:39:23;;;;;;;11.10;5.00;;;;;;;-1.09;100.00;97252.50;109647;1249;68904;-73
2023/03/11 01:42:11;;;;;;;10.90;5.20;;;;;;;-1.11;99.99;97256.89;109676;1249;71195;-72
2023/03/11 01:44:58;;;;;;;11.00;4.90;;;;;;;-1.12;99.99;97257.48;109875;1250;58989;-72
2023/03/11 01:47:44;;;;;;;9.20;4.70;;;;;;;-1.11;100.00;97250.10;109696;1250;60221;-72
2023/03/11 01:50:40;;;;;;;12.00;6.30;;;;;;;-1.11;100.00;97243.13;109634;1251;74102;-73
2023/03/11 01:53:26;;;;;;;10.00;4.80;;;;;;;-1.11;100.00;97239.10;109698;1249;67760;-72
2023/03/11 01:56:13;;;;;;;10.60;5.70;;;;;;;-1.11;100.00;97235.08;108939;1250;1002389;-72
2023/03/11 01:59:00;;;;;;;9.30;4.50;;;;;;;-1.08;100.00;97229.96;109670;1249;57300;-72
2023/03/11 02:02:18;;;;;;;10.10;4.70;;;;;;;-1.08;100.00;97234.33;109896;1250;60006;-71
2023/03/11 02:05:05;;;;;;;10.50;4.60;;;;;;;-1.10;100.00;97240.23;109690;1250;71508;-72
2023/03/11 02:07:54;;;;;;;9.80;4.80;;;;;;;-1.13;100.00;97239.96;109753;1249;67914;-72
2023/03/11 02:10:43;;;;;;;10.70;5.10;;;;;;;-1.16;100.00;97238.65;109640;1250;73452;-72
2023/03/11 02:13:34;;;;;;;11.10;5.10;;;;;;;-1.17;100.00;97240.62;108118;1250;1002795;-71
2023/03/11 02:16:20;;;;;;;11.20;5.10;;;;;;;-1.17;100.00;97239.77;109765;1250;58921;-71
2023/03/11 02:19:28;;;;;;;10.60;5.50;;;;;;;-1.17;100.00;97240.45;109731;1250;72847;-72
2023/03/11 02:22:15;;;;;;;11.20;5.40;;;;;;;-1.19;100.00;97239.16;109703;1250;68806;-72
2023/03/11 02:25:20;;;;;;;9.50;4.80;;;;;;;-1.18;100.00;97241.73;109764;1249;73685;-72
2023/03/11 02:28:10;;;;;;;11.80;5.20;;;;;;;-1.17;100.00;97242.02;109664;1251;59955;-72
2023/03/11 02:30:57;;;;;;;8.60;4.10;;;;;;;-1.19;100.00;97242.14;109595;1249;58839;-73
2023/03/11 02:33:47;;;;;;;9.10;3.90;;;;;;;-1.19;100.00;97248.23;109862;1250;72685;-73
2023/03/11 02:36:42;;;;;;;10.60;4.50;;;;;;;-1.21;100.00;97247.84;109473;1250;66716;-73
2023/03/11 02:39:42;;;;;;;9.80;4.00;;;;;;;-1.24;100.00;97248.63;109451;1250;72577;-73
2023/03/11 02:42:32;;;;;;;9.60;5.00;;;;;;;-1.28;100.00;97253.20;109630;1250;59042;-72
2023/03/11 02:45:23;;;;;;;10.50;5.10;;;;;;;-1.28;100.00;97250.27;109690;1250;58212;-73
2023/03/11 02:48:11;;;;;;;10.30;4.50;;;;;;;-1.27;100.00;97245.02;109640;1251;72345;-72
2023/03/11 02:50:58;;;;;;;8.80;4.00;;;;;;;-1.25;100.00;97248.44;109707;1250;68654;-73
2023/03/11 02:53:53;;;;;;;9.30;3.70;;;;;;;-1.24;100.00;97252.80;109676;1249;72465;-72
2023/03/11 02:56:40;;;;;;;9.10;4.20;;;;;;;-1.24;100.00;97256.76;109477;1250;57341;-73
2023/03/11 02:59:26;;;;;;;9.60;3.80;;;;;;;-1.25;100.00;97256.65;109683;1250;61269;-74
2023/03/11 03:02:13;;;;;;;8.00;3.10;;;;;;;-1.27;100.00;97260.30;109769;1250;73876;-74
2023/03/11 03:05:00;;;;;;;8.10;3.70;;;;;;;-1.32;100.00;97260.89;109714;1251;68999;-73
2023/03/11 03:07:48;;;;;;;10.50;3.80;;;;;;;-1.34;100.00;97265.54;109897;1249;71912;-73
2023/03/11 03:10:36;;;;;;;8.90;4.30;;;;;;;-1.34;100.00;97264.81;109555;1251;58335;-73
2023/03/11 03:13:23;;;;;;;8.70;3.90;;;;;;;-1.33;100.00;97266.88;109660;1249;61271;-73
2023/03/11 03:16:10;;;;;;;8.10;3.30;;;;;;;-1.32;100.00;97267.31;109743;1250;74103;-73
2023/03/11 03:18:57;;;;;;;8.60;3.90;;;;;;;-1.34;100.00;97270.73;109646;1251;68696;-75
2023/03/11 03:21:44;;;;;;;7.80;3.70;;;;;;;-1.32;100.00;97271.48;109704;1250;70352;-74
2023/03/11 03:24:31;;;;;;;8.70;4.20;;;;;;;-1.32;100.00;97277.02;109641;1250;58169;-74
2023/03/11 03:27:18;;;;;;;8.50;3.20;;;;;;;-1.32;100.00;97280.17;109687;1251;61055;-73
2023/03/11 03:30:06;;;;;;;9.00;3.50;;;;;;;-1.33;100.00;97284.60;109739;1249;72876;-73
2023/03/11 03:32:54;;;;;;;9.60;4.00;;;;;;;-1.33;100.00;97287.05;109517;1250;68554;-73
2023/03/11 03:35:43;;;;;;;9.30;4.50;;;;;;;-1.31;100.00;97287.60;109658;1250;73621;-72
2023/03/11 03:38:57;;;;;;;8.30;3.50;;;;;;;-1.29;100.00;97288.98;109706;1250;59520;-73
2023/03/11 03:41:46;;;;;;;10.70;4.00;;;;;;;-1.30;100.00;97288.36;109674;1250;58810;-73
2023/03/11 03:44:33;;;;;;;8.10;3.10;;;;;;;-1.31;100.00;97288.23;109747;1250;71613;-73
2023/03/11 03:47:19;;;;;;;9.10;3.90;;;;;;;-1.33;100.00;97286.85;108931;1250;1002326;-75
2023/03/11 03:50:09;;;;;;;7.90;3.00;;;;;;;-1.33;100.00;97289.48;109855;1251;71160;-75
2023/03/11 03:52:57;;;;;;;8.00;3.10;;;;;;;-1.34;100.00;97292.83;109753;1250;57232;-76
2023/03/11 03:55:45;;;;;;;9.50;3.10;;;;;;;-1.33;100.00;97298.38;109577;1249;58781;-75
2023/03/11 03:58:32;;;;;;;7.20;3.20;;;;;;;-1.37;100.00;97300.20;108954;1249;1002098;-74
2023/03/11 04:01:19;;;;;;;8.40;3.60;;;;;;;-1.37;100.00;97300.71;109705;1250;67981;-73
2023/03/11 04:04:06;;;;;;;7.20;2.90;;;;;;;-1.39;100.00;97312.45;109714;1250;73480;-74
2023/03/11 04:06:52;;;;;;;8.30;3.50;;;;;;;-1.42;100.00;97312.71;109877;1250;58790;-73
2023/03/11 04:09:42;;;;;;;7.70;3.70;;;;;;;-1.40;100.00;97312.56;109747;1250;58908;-73
2023/03/11 04:12:29;;;;;;;9.10;3.50;;;;;;;-1.38;100.00;97309.46;109671;1250;72955;-73
2023/03/11 04:15:16;;;;;;;7.20;3.00;;;;;;;-1.39;100.00;97309.55;109706;1251;68192;-75
2023/03/11 04:18:03;;;;;;;6.50;2.70;;;;;;;-1.41;100.00;97318.86;109715;1251;71559;-74
2023/03/11 04:20:49;;;;;;;8.70;3.00;;;;;;;-1.44;100.00;97319.83;109631;1251;57252;-75
2023/03/11 04:23:36;;;;;;;8.80;3.60;;;;;;;-1.47;100.00;97316.17;109719;1250;59137;-75
2023/03/11 04:26:24;;;;;;;9.10;4.00;;;;;;;-1.46;100.00;97315.77;108775;1250;1002317;-74
2023/03/11 04:29:10;;;;;;;9.20;4.30;;;;;;;-1.44;100.00;97319.13;109654;1251;67777;-75
2023/03/11 04:32:00;;;;;;;8.50;3.70;;;;;;;-1.43;100.00;97322.84;109745;1250;72679;-76
2023/03/11 04:34:48;;;;;;;10.30;3.80;;;;;;;-1.42;100.00;97326.31;109600;1250;57440;-74
2023/03/11 04:37:35;;;;;;;8.60;3.80;;;;;;;-1.45;100.00;97320.77;109651;1250;60365;-75
2023/03/11 04:40:21;;;;;;;9.30;4.10;;;;;;;-1.41;100.00;97325.67;109602;1250;72693;-76
2023/03/11 04:43:07;;;;;;;12.10;3.80;;;;;;;-1.40;100.00;97332.58;109772;1250;67956;-74
2023/03/11 04:45:55;;;;;;;9.70;3.50;;;;;;;-1.41;100.00;97337.20;109789;1249;73680;-75
2023/03/11 04:48:41;;;;;;;9.10;3.40;;;;;;;-1.43;99.67;97331.90;109569;1251;58492;-74
2023/03/11 04:51:28;;;;;;;9.00;3.80;;;;;;;-1.44;99.37;97331.30;109599;1253;58699;-72
2023/03/11 04:54:15;;;;;;;7.40;3.20;;;;;;;-1.44;99.12;97336.14;109633;1250;74392;-73
2023/03/11 04:57:01;;;;;;;9.90;3.20;;;;;;;-1.42;99.06;97334.46;109773;1251;68926;-74
2023/03/11 04:59:48;;;;;;;8.90;3.30;;;;;;;-1.40;99.06;97337.96;109687;1250;73692;-75
2023/03/11 05:02:34;;;;;;;10.20;3.90;;;;;;;-1.37;98.88;97340.00;109629;1251;57834;-77
2023/03/11 05:05:21;;;;;;;8.40;3.60;;;;;;;-1.37;98.79;97345.91;109644;1250;59943;-74
2023/03/11 05:08:08;;;;;;;8.60;3.80;;;;;;;-1.42;98.35;97349.73;109608;1249;74066;-72
2023/03/11 05:10:54;;;;;;;11.00;4.50;;;;;;;-1.41;98.22;97357.65;109805;1250;68992;-72
2023/03/11 05:13:41;;;;;;;8.40;3.60;;;;;;;-1.42;98.12;97357.78;109640;1250;71069;-75
2023/03/11 05:16:27;;;;;;;8.60;3.20;;;;;;;-1.44;97.85;97359.09;109700;1250;57362;-75
2023/03/11 05:19:29;;;;;;;9.50;3.60;;;;;;;-1.43;97.95;97361.64;109576;1251;60158;-73
2023/03/11 05:22:16;;;;;;;8.00;3.30;;;;;;;-1.44;97.46;97362.76;108937;1249;1002510;-74
2023/03/11 05:25:05;;;;;;;8.70;3.90;;;;;;;-1.43;97.46;97365.67;109566;1251;68730;-72
2023/03/11 05:27:51;;;;;;;8.80;3.60;;;;;;;-1.40;97.72;97366.84;109482;1251;73675;-73
2023/03/11 05:30:38;;;;;;;8.20;3.40;;;;;;;-1.39;97.62;97366.77;109616;1251;57646;-74
2023/03/11 05:33:25;;;;;;;10.60;3.80;;;;;;;-1.40;97.66;97368.70;109601;1250;60124;-75
2023/03/11 05:36:11;;;;;;;10.00;3.70;;;;;;;-1.41;97.29;97375.08;109676;1249;73075;-73
2023/03/11 05:39:00;;;;;;;10.10;3.60;;;;;;;-1.44;97.38;97374.72;109629;1251;66675;-73
2023/03/11 05:41:47;;;;;;;7.70;3.30;;;;;;;-1.44;97.34;97371.86;109627;1250;72652;-74
2023/03/11 05:44:34;;;;;;;9.10;3.80;;;;;;;-1.46;97.19;97384.64;109632;1250;59013;-74
2023/03/11 05:47:21;;;;;;;9.50;4.00;;;;;;;-1.43;97.27;97394.55;109623;1251;60205;-72
2023/03/11 05:50:10;;;;;;;7.80;3.30;;;;;;;-1.43;97.40;97404.23;109707;1251;74110;-75
2023/03/11 05:52:57;;;;;;;13.00;4.80;;;;;;;-1.42;96.95;97409.97;109560;1251;67920;-74
2023/03/11 05:55:44;;;;;;;9.30;4.60;;;;;;;-1.40;97.27;97413.13;109591;1250;72410;-75
2023/03/11 05:58:32;;;;;;;9.20;4.40;;;;;;;-1.39;97.16;97417.19;109625;1249;58684;-74
2023/03/11 06:01:19;;;;;;;9.80;4.30;;;;;;;-1.40;96.60;97424.73;109726;1250;59974;-72
2023/03/11 06:04:06;;;;;;;9.40;3.80;;;;;;;-1.40;96.75;97429.42;109624;1250;72927;-73
2023/03/11 06:06:53;;;;;;;9.10;4.00;;;;;;;-1.41;96.50;97433.52;109660;1250;68884;-73
2023/03/11 06:09:43;;;;;;;11.30;4.50;;;;;;;-1.40;96.73;97432.58;109595;1250;73589;-75
2023/03/11 06:12:34;;;;;;;9.80;4.20;;;;;;;-1.39;96.38;97436.11;109526;1250;57593;-73
2023/03/11 06:15:29;;;;;;;8.80;4.10;;;;;;;-1.37;96.55;97441.58;108887;1249;1002182;-74
2023/03/11 06:18:15;;;;;;;9.30;4.00;;;;;;;-1.34;96.12;97446.10;109782;1250;72728;-74
2023/03/11 06:21:03;;;;;;;10.30;4.20;;;;;;;-1.33;96.30;97452.96;109770;1250;68892;-75
2023/03/11 06:23:51;;;;;;;8.60;3.70;;;;;;;-1.31;96.25;97461.75;108875;1250;1002595;-75
2023/03/11 06:26:38;;;;;;;10.70;4.70;;;;;;;-1.32;95.82;97461.05;109445;1251;57515;-74
2023/03/11 06:29:25;;;;;;;9.90;5.00;;;;;;;-1.27;95.61;97461.30;109651;1252;60381;-73
2023/03/11 06:32:12;;;;;;;8.80;4.30;;;;;;;-1.24;95.58;97467.83;109535;1254;71582;-72
2023/03/11 06:35:00;;;;;;;9.50;4.00;;;;;;;-1.23;95.19;97474.50;109654;1251;66681;-73
2023/03/11 06:37:46;;;;;;;9.40;4.30;;;;;;;-1.24;94.85;97481.53;109687;1251;70125;-72
2023/03/11 06:40:33;;;;;;;10.20;4.40;;;;;;;-1.27;94.91;97481.26;109688;1251;57947;-72
2023/03/11 06:43:21;;;;;;;14.50;5.40;;;;;;;-1.23;94.80;97490.16;109561;1251;60222;-74
2023/03/11 06:46:21;;;;;;;9.20;3.90;;;;;;;-1.23;94.44;97489.13;109369;1250;71753;-73
2023/03/11 06:49:08;;;;;;;11.40;4.70;;;;;;;-1.23;93.88;97498.91;109551;1251;65562;-74
2023/03/11 06:51:56;;;;;;;9.90;4.10;;;;;;;-1.23;93.49;97500.64;109651;1251;72441;-74
2023/03/11 06:54:43;;;;;;;13.70;4.60;;;;;;;-1.23;93.38;97504.13;109642;1251;57390;-74
2023/03/11 06:57:32;;;;;;;12.10;4.60;;;;;;;-1.20;93.65;97508.08;109624;1251;58914;-76
2023/03/11 07:00:21;;;;;;;9.50;4.00;;;;;;;-1.15;93.42;97519.23;109333;1251;71509;-73
2023/03/11 07:03:11;;;;;;;9.20;4.20;;;;;;;-1.12;93.31;97520.95;109460;1250;67777;-74
2023/03/11 07:05:59;;;;;;;10.30;4.10;;;;;;;-1.09;92.99;97530.80;109584;1251;71203;-73
2023/03/11 07:08:50;;;;;;;9.60;3.90;;;;;;;-1.06;92.70;97530.60;109408;1251;58628;-73
2023/03/11 07:11:37;;;;;;;11.30;4.10;;;;;;;-1.06;91.96;97538.95;109482;1251;61397;-73
2023/03/11 07:14:28;;;;;;;10.90;4.00;;;;;;;-1.01;91.66;97545.73;109269;1257;73803;-74
2023/03/11 07:17:15;;;;;;;12.90;4.80;;;;;;;-0.99;91.23;97550.48;109266;1257;68734;-73
2023/03/11 07:20:06;;;;;;;11.10;4.10;;;;;;;-0.99;90.94;97557.08;109153;1257;72557;-72
2023/03/11 07:22:53;;;;;;;9.70;3.70;;;;;;;-0.98;90.68;97563.29;109071;1255;58727;-73
2023/03/11 07:25:46;;;;;;;9.30;4.00;;;;;;;-0.99;90.29;97566.50;109303;1254;60373;-76
2023/03/11 07:28:32;;;;;;;7.80;3.50;;;;;;;-0.99;89.83;97569.63;109376;1254;73903;-72
2023/03/11 07:31:23;;;;;;;8.80;3.60;;;;;;;-0.95;90.45;97576.68;109428;1254;68968;-73
2023/03/11 07:34:11;;;;;;;12.60;5.20;;;;;;;-0.91;89.99;97583.52;109230;1254;72649;-71
2023/03/11 07:36:58;;;;;;;11.10;3.60;;;;;;;-0.89;90.29;97585.10;109218;1254;57441;-74
2023/03/11 07:39:44;;;;;;;9.80;3.40;;;;;;;-0.83;89.75;97597.77;109373;1254;60247;-74
2023/03/11 07:42:33;;;;;;;9.90;3.70;;;;;;;-0.83;89.19;97599.13;109403;1254;73079;-72
2023/03/11 07:45:20;;;;;;;8.20;3.40;;;;;;;-0.84;88.84;97605.68;109402;1251;67920;-73
2023/03/11 07:48:06;;;;;;;10.10;3.90;;;;;;;-0.84;88.83;97612.13;109662;1251;73582;-73
2023/03/11 07:51:23;;;;;;;9.20;4.00;;;;;;;-0.85;88.94;97619.14;109654;1251;57332;-76
2023/03/11 07:54:11;;;;;;;7.80;3.80;;;;;;;-0.83;88.79;97618.82;109642;1251;58909;-75
2023/03/11 07:56:58;;;;;;;9.30;3.70;;;;;;;-0.82;88.57;97619.80;109616;1251;73997;-74
2023/03/11 07:59:45;;;;;;;7.70;3.20;;;;;;;-0.80;88.19;97620.21;109473;1251;69377;-74
2023/03/11 08:02:31;;;;;;;8.40;3.70;;;;;;;-0.81;88.23;97620.09;108893;1255;1002480;-73
2023/03/11 08:05:19;;;;;;;10.20;3.90;;;;;;;-0.83;88.09;97627.34;109545;1251;58557;-74
2023/03/11 08:08:06;;;;;;;8.70;3.40;;;;;;;-0.83;87.95;97631.19;109676;1251;60199;-74
2023/03/11 08:10:52;;;;;;;7.00;2.90;;;;;;;-0.83;87.56;97638.30;109645;1251;71566;-74
2023/03/11 08:13:42;;;;;;;8.30;3.40;;;;;;;-0.82;88.08;97646.98;109682;1251;65577;-75
2023/03/11 08:16:29;;;;;;;10.00;4.10;;;;;;;-0.79;88.05;97654.94;109687;1251;71081;-74
2023/03/11 08:19:16;;;;;;;8.00;3.50;;;;;;;-0.76;87.91;97659.27;109677;1251;57351;-72
2023/03/11 08:22:03;;;;;;;8.90;3.20;;;;;;;-0.78;87.39;97661.67;108863;1251;1002342;-75
2023/03/11 08:24:51;;;;;;;7.20;2.70;;;;;;;-0.78;87.38;97667.05;108950;1251;1015573;-74
2023/03/11 08:27:37;;;;;;;8.10;3.20;;;;;;;-0.78;87.02;97671.42;109501;1250;66532;-75
2023/03/11 08:30:24;;;;;;;7.00;2.80;;;;;;;-0.75;86.96;97678.00;109649;1251;73553;-73
2023/03/11 08:33:10;;;;;;;8.40;3.20;;;;;;;-0.73;86.32;97683.91;109695;1251;57566;-74
2023/03/11 08:35:57;;;;;;;7.40;2.80;;;;;;;-0.74;85.81;97686.42;109761;1251;58993;-74
2023/03/11 08:38:44;;;;;;;7.90;2.80;;;;;;;-0.72;86.22;97688.91;109671;1251;72827;-76
2023/03/11 08:41:31;;;;;;;7.40;2.60;;;;;;;-0.70;86.36;97692.77;109785;1249;66923;-75
2023/03/11 08:44:17;;;;;;;7.10;2.80;;;;;;;-0.63;86.50;97693.57;109806;1251;71219;-75
2023/03/11 08:47:04;;;;;;;6.50;2.50;;;;;;;-0.58;86.23;97694.61;109779;1251;57392;-73
2023/03/11 08:49:51;;;;;;;6.50;2.70;;;;;;;-0.55;85.72;97708.46;109798;1250;59048;-74
2023/03/11 08:52:37;;;;;;;8.00;2.90;;;;;;;-0.53;85.12;97717.38;109832;1250;72968;-75
2023/03/11 08:55:26;;;;;;;7.30;2.90;;;;;;;-0.48;85.16;97725.21;109701;1250;66328;-73
2023/03/11 08:58:13;;;;;;;7.10;2.70;;;;;;;-0.40;84.49;97732.14;109788;1251;71727;-76
2023/03/11 09:00:59;;;;;;;7.70;3.00;;;;;;;-0.30;84.55;97733.56;109501;1250;57372;-76
2023/03/11 09:03:46;;;;;;;7.90;2.70;;;;;;;-0.19;84.00;97732.43;109627;1249;60015;-74
2023/03/11 09:06:33;;;;;;;6.50;2.70;;;;;;;-0.09;83.50;97736.78;109665;1251;74024;-74
2023/03/11 09:09:19;;;;;;;8.50;2.50;;;;;;;-0.02;81.95;97740.83;109822;1251;66495;-76
2023/03/11 09:12:07;;;;;;;6.80;2.50;;;;;;;0.06;82.24;97736.63;109188;1255;72681;-76
2023/03/11 09:14:55;;;;;;;6.50;2.50;;;;;;;0.18;81.66;97738.73;109348;1254;58041;-75
2023/03/11 09:17:41;;;;;;;6.20;2.40;;;;;;;0.20;81.05;97743.27;109335;1254;58959;-74
2023/03/11 09:20:28;;;;;;;6.70;2.60;;;;;;;0.24;80.95;97753.31;108620;1257;1002503;-74
2023/03/11 09:23:17;;;;;;;7.20;2.80;;;;;;;0.22;80.40;97761.48;109359;1254;67929;-75
2023/03/11 09:26:04;;;;;;;7.40;2.60;;;;;;;0.17;80.51;97773.00;109318;1254;73983;-74
2023/03/11 09:28:51;;;;;;;7.70;2.70;;;;;;;0.11;79.87;97780.91;109339;1254;57606;-74
2023/03/11 09:31:38;;;;;;;6.70;2.60;;;;;;;0.10;79.67;97790.75;109311;1255;60293;-74
2023/03/11 09:34:25;;;;;;;7.40;2.60;;;;;;;0.09;79.41;97790.10;109375;1254;71962;-76
2023/03/11 09:37:11;;;;;;;9.30;3.30;;;;;;;0.11;79.35;97800.94;109268;1254;66650;-75
2023/03/11 09:39:58;;;;;;;6.90;2.80;;;;;;;0.15;79.76;97802.88;109209;1254;73537;-73
2023/03/11 09:42:56;;;;;;;7.20;2.50;;;;;;;0.16;79.25;97807.39;109458;1251;57416;-75
2023/03/11 09:46:05;;;;;;;6.80;2.60;;;;;;;0.17;79.54;97807.53;109465;1251;58764;-73
2023/03/11 09:49:02;;;;;;;7.20;2.50;;;;;;;0.20;79.24;97821.62;109587;1251;72484;-73
2023/03/11 09:52:05;;;;;;;6.40;2.50;;;;;;;0.25;79.01;97832.41;109692;1250;67592;-72
2023/03/11 09:54:54;;;;;;;6.10;2.40;;;;;;;0.25;78.46;97835.50;109622;1251;73688;-73
2023/03/11 09:57:41;;;;;;;6.90;2.70;;;;;;;0.24;78.61;97840.35;109632;1251;57286;-71
2023/03/11 10:00:28;;;;;;;6.40;2.40;;;;;;;0.24;78.76;97840.68;109603;1251;59224;-71
2023/03/11 10:03:35;;;;;;;7.00;2.60;;;;;;;0.19;78.85;97841.90;109646;1251;71997;-74
2023/03/11 10:06:28;;;;;;;6.80;2.40;;;;;;;0.19;79.35;97848.33;109588;1251;67929;-74
2023/03/11 10:09:39;;;;;;;6.70;2.70;;;;;;;0.28;78.25;97853.82;109566;1251;72742;-74
2023/03/11 10:12:28;;;;;;;8.70;2.80;;;;;;;0.36;77.53;97857.77;109519;1251;57277;-75
2023/03/11 10:15:48;;;;;;;6.40;2.10;;;;;;;0.49;77.24;97864.73;109717;1251;61216;-75
2023/03/11 10:19:03;;;;;;;9.10;2.70;;;;;;;0.54;75.02;97869.30;109785;1251;71552;-73
2023/03/11 10:22:25;;;;;;;8.00;2.60;;;;;;;0.53;75.50;97872.65;109831;1251;69100;-73
2023/03/11 10:25:29;;;;;;;7.70;2.30;;;;;;;0.54;73.87;97879.71;109619;1251;72687;-74
2023/03/11 10:28:19;;;;;;;6.20;2.10;;;;;;;0.54;72.42;97885.13;109571;1251;57336;-72
2023/03/11 10:31:26;;;;;;;6.00;2.10;;;;;;;0.66;72.39;97892.33;109782;1251;60215;-72
2023/03/11 10:34:42;;;;;;;7.40;2.10;;;;;;;0.81;71.08;97888.59;109813;1251;72749;-73
2023/03/11 10:37:39;;;;;;;6.50;1.90;;;;;;;0.89;70.02;97897.15;109612;1250;66484;-74
2023/03/11 10:40:40;;;;;;;7.00;2.00;;;;;;;0.80;69.18;97905.25;109585;1251;72128;-73
2023/03/11 10:43:40;;;;;;;6.50;2.30;;;;;;;0.73;70.22;97904.91;109595;1250;58255;-75
2023/03/11 10:46:28;;;;;;;6.90;2.20;;;;;;;0.65;70.23;97908.77;109681;1249;60047;-72
2023/03/11 10:49:18;;;;;;;6.90;2.40;;;;;;;0.63;70.99;97912.62;109615;1250;73822;-73
2023/03/11 10:52:05;;;;;;;6.70;2.20;;;;;;;0.61;71.39;97915.38;109642;1250;67818;-72
2023/03/11 10:55:01;;;;;;;6.20;2.10;;;;;;;0.58;71.19;97912.95;109762;1250;72699;-72
2023/03/11 10:57:48;;;;;;;7.10;2.20;;;;;;;0.58;71.29;97915.02;109671;1250;57444;-75
2023/03/11 11:00:35;;;;;;;7.80;2.30;;;;;;;0.61;70.72;97918.69;109791;1250;60107;-74
2023/03/11 11:03:23;;;;;;;7.40;2.20;;;;;;;0.57;70.72;97921.79;109808;1251;71903;-73
2023/03/11 11:06:24;;;;;;;6.80;2.30;;;;;;;0.57;71.46;97925.10;109780;1250;68309;-73
2023/03/11 11:09:20;;;;;;;7.60;2.40;;;;;;;0.58;70.95;97930.79;109631;1249;72491;-72
2023/03/11 11:12:14;;;;;;;7.20;2.30;;;;;;;0.56;71.10;97934.39;109499;1251;57390;-72
2023/03/11 11:15:01;;;;;;;8.80;2.50;;;;;;;0.48;70.21;97944.90;109634;1251;61683;-73
2023/03/11 11:17:48;;;;;;;8.70;3.00;;;;;;;0.37;69.90;97956.80;109737;1250;73740;-73
2023/03/11 11:20:55;;;;;;;9.60;2.50;;;;;;;0.36;71.11;97964.39;109862;1251;66492;-73
2023/03/11 11:23:47;;;;;;;8.00;2.40;;;;;;;0.35;70.87;97965.53;109622;1249;73715;-75
2023/03/11 11:26:33;;;;;;;7.80;2.40;;;;;;;0.37;70.79;97974.98;109545;1249;57409;-73
2023/03/11 11:29:19;;;;;;;6.80;2.30;;;;;;;0.34;70.02;97978.66;109817;1249;61228;-75
2023/03/11 11:32:28;;;;;;;11.00;2.60;;;;;;;0.41;70.78;97982.37;109689;1249;72884;-72
2023/03/11 11:35:16;;;;;;;6.40;2.10;;;;;;;0.52;69.61;97986.83;109609;1250;66792;-73
2023/03/11 11:38:03;;;;;;;7.70;2.40;;;;;;;0.64;68.22;97989.48;109637;1251;74002;-72
2023/03/11 11:40:51;;;;;;;6.60;2.20;;;;;;;0.71;66.65;97983.06;109540;1251;57463;-72
2023/03/11 11:43:52;;;;;;;9.10;2.40;;;;;;;0.83;67.03;97981.38;109015;1249;1002331;-73
2023/03/11 11:46:43;;;;;;;6.80;2.50;;;;;;;0.94;66.51;97983.19;109623;1251;71233;-73
2023/03/11 11:49:35;;;;;;;6.40;2.00;;;;;;;0.97;64.81;97985.11;109598;1249;202486;-74
2023/03/11 11:52:32;;;;;;;6.50;2.10;;;;;;;1.02;64.90;97993.80;109769;1251;73768;-72
2023/03/11 11:55:25;;;;;;;6.30;2.00;;;;;;;1.12;64.35;98001.15;109790;1250;57414;-71
2023/03/11 11:58:11;;;;;;;7.10;2.20;;;;;;;1.25;63.89;97999.34;109625;1251;59265;-72
2023/03/11 12:01:13;;;;;;;6.20;2.00;;;;;;;1.31;62.31;98004.31;109811;1250;74186;-72
2023/03/11 12:04:24;;;;;;;6.20;2.00;;;;;;;1.21;62.50;98015.16;109682;1250;67828;-72
2023/03/11 12:07:42;;;;;;;6.00;1.90;;;;;;;1.05;63.86;98014.20;109716;1251;73353;-72
2023/03/11 12:11:05;;;;;;;5.80;1.90;;;;;;;0.89;64.83;98021.60;109008;1259;57517;-73
2023/03/11 12:14:09;;;;;;;7.90;2.50;;;;;;;0.72;65.08;98017.09;109047;1259;60123;-74
2023/03/11 12:17:03;;;;;;;6.50;2.10;;;;;;;0.61;65.75;98020.78;108153;1259;1002349;-73
2023/03/11 12:20:12;;;;;;;8.50;2.40;;;;;;;0.68;66.89;98021.73;108281;1259;1002446;-70
2023/03/11 12:23:29;;;;;;;6.70;2.10;;;;;;;0.85;67.10;98032.40;108234;1259;1002575;-72
2023/03/11 12:26:22;;;;;;;6.80;2.40;;;;;;;0.95;66.76;98029.05;108949;1258;57579;-74
2023/03/11 12:29:39;;;;;;;6.20;2.20;;;;;;;1.12;66.70;98033.84;108979;1259;59094;-73
2023/03/11 12:32:46;;;;;;;6.50;2.10;;;;;;;1.27;66.32;98042.16;108942;1259;71765;-73
2023/03/11 12:35:34;;;;;;;8.50;2.70;;;;;;;1.37;65.85;98040.77;108967;1259;67998;-74
2023/03/11 12:38:39;;;;;;;7.80;2.20;;;;;;;1.36;65.83;98049.55;108927;1259;71309;-73
2023/03/11 12:41:40;;;;;;;7.40;2.10;;;;;;;1.25;66.49;98050.00;108943;1259;58014;-75
2023/03/11 12:44:29;;;;;;;6.80;2.00;;;;;;;1.10;67.25;98051.10;109030;1259;58925;-72
2023/03/11 12:47:22;;;;;;;6.80;2.10;;;;;;;1.00;67.94;98056.33;109272;1253;73825;-72
2023/03/11 12:50:40;;;;;;;6.70;2.20;;;;;;;0.99;68.63;98058.98;109633;1251;67882;-72
2023/03/11 12:53:46;;;;;;;7.20;2.40;;;;;;;0.99;68.94;98064.75;109641;1250;70359;-73
2023/03/11 12:56:49;;;;;;;10.00;2.80;;;;;;;0.96;68.79;98071.77;109699;1250;57405;-74
2023/03/11 12:59:41;;;;;;;7.00;2.40;;;;;;;1.04;68.47;98073.14;108933;1250;1002786;-74
2023/03/11 13:03:04;;;;;;;7.70;2.40;;;;;;;1.16;67.96;98078.58;109705;1250;70470;-74
2023/03/11 13:06:12;;;;;;;6.60;2.20;;;;;;;1.11;67.64;98086.08;109659;1251;67095;-77
2023/03/11 13:08:59;;;;;;;6.70;2.00;;;;;;;0.94;67.31;98089.56;109766;1250;72657;-73
2023/03/11 13:11:47;;;;;;;6.40;2.10;;;;;;;0.80;67.60;98101.17;109620;1249;57389;-73